Time;durP1;ratioP1;P1;durP2;ratioP2;P2;SDS_P1;SDS_P2;PMS_P1;PMS_P2;Temp;Humidity;BMP_temperature;BMP_pressure;BME280_temperature;BME280_humidity;BME280_pressure;Samples;Min_cycle;Max_cycle;Signal;HPM_P1;HPM_P2
2024/04/05 00:01:41;;;;;;;27.85;25.05;;;;;;;;;;5107145;28;20466;-47
2024/04/05 00:04:08;;;;;;;13.57;11.07;;;;;;;;;;5106851;28;20335;-47
2024/04/05 00:06:35;;;;;;;10.55;8.35;;;;;;;;;;5106982;28;20027;-51
2024/04/05 00:09:06;;;;;;;11.07;7.45;;;;;;;;;;5106565;28;20363;-42
2024/04/05 00:11:33;;;;;;;11.90;6.95;;;;;;;;;;5106767;28;20295;-40
2024/04/05 00:13:59;;;;;;;8.35;6.20;;;;;;;;;;5106390;28;20020;-46
2024/04/05 00:16:26;;;;;;;11.90;5.88;;;;;;;;;;5106785;28;20043;-39
2024/04/05 00:18:54;;;;;;;8.50;5.57;;;;;;;;;;5106522;28;20284;-40
2024/04/05 00:21:21;;;;;;;7.60;4.80;;;;;;;;;;5106394;28;20028;-42
2024/04/05 00:23:49;;;;;;;9.68;4.53;;;;;;;;;;5106484;28;20074;-48
2024/04/05 00:26:16;;;;;;;7.80;4.30;;;;;;;;;;5106049;28;20242;-50
2024/04/05 00:28:43;;;;;;;5.57;3.92;;;;;;;;;;5106436;28;20020;-45
2024/04/05 00:31:09;;;;;;;6.15;4.20;;;;;;;;;;5106239;28;20074;-50
2024/04/05 00:33:36;;;;;;;5.18;4.13;;;;;;;;;;5106233;28;20024;-45
2024/04/05 00:36:03;;;;;;;8.00;3.65;;;;;;;;;;5106351;28;20118;-38
2024/04/05 00:38:30;;;;;;;8.00;3.83;;;;;;;;;;5106297;28;20091;-44
2024/04/05 00:40:56;;;;;;;7.75;3.03;;;;;;;;;;5106201;28;20028;-44
2024/04/05 00:43:23;;;;;;;4.88;2.80;;;;;;;;;;5106090;28;20032;-45
2024/04/05 00:45:51;;;;;;;4.30;2.75;;;;;;;;;;5105896;28;20031;-55
2024/04/05 00:48:20;;;;;;;5.60;3.42;;;;;;;;;;5106081;28;20024;-45
2024/04/05 00:50:47;;;;;;;6.35;4.82;;;;;;;;;;5106027;28;20020;-44
2024/04/05 00:53:17;;;;;;;5.57;3.85;;;;;;;;;;5106129;28;20185;-47
2024/04/05 00:55:44;;;;;;;6.97;3.30;;;;;;;;;;5106102;28;20043;-49
2024/04/05 00:58:11;;;;;;;5.03;3.10;;;;;;;;;;5105129;28;20020;-43
2024/04/05 01:00:38;;;;;;;6.90;3.00;;;;;;;;;;5105745;28;20043;-46
2024/04/05 01:03:04;;;;;;;4.72;2.72;;;;;;;;;;5105848;28;20030;-44
2024/04/05 01:05:31;;;;;;;6.45;3.00;;;;;;;;;;5105632;28;20042;-49
2024/04/05 01:07:57;;;;;;;5.78;3.10;;;;;;;;;;5105872;28;20049;-44
2024/04/05 01:10:25;;;;;;;6.72;4.30;;;;;;;;;;5105326;28;20300;-41
2024/04/05 01:13:18;;;;;;;7.90;4.65;;;;;;;;;;5105404;28;20031;-44
2024/04/05 01:15:45;;;;;;;5.82;3.92;;;;;;;;;;5102106;28;20036;-49
2024/04/05 01:18:11;;;;;;;4.43;3.38;;;;;;;;;;5105522;28;20024;-49
2024/04/05 01:20:39;;;;;;;4.65;3.30;;;;;;;;;;5105120;28;20308;-47
2024/04/05 01:23:07;;;;;;;4.35;3.50;;;;;;;;;;5105133;28;20073;-46
2024/04/05 01:25:34;;;;;;;5.28;3.78;;;;;;;;;;5104972;28;20046;-48
2024/04/05 01:28:01;;;;;;;6.60;4.20;;;;;;;;;;5105116;28;20046;-49
2024/04/05 01:30:28;;;;;;;7.45;4.40;;;;;;;;;;5104874;28;20048;-51
2024/04/05 01:32:57;;;;;;;7.72;4.40;;;;;;;;;;5104933;28;20268;-41
2024/04/05 01:35:24;;;;;;;8.70;5.28;;;;;;;;;;5104918;28;20024;-45
2024/04/05 01:37:50;;;;;;;9.00;5.55;;;;;;;;;;5104886;28;20031;-51
2024/04/05 01:40:17;;;;;;;9.32;5.70;;;;;;;;;;5104758;28;20040;-47
2024/04/05 01:42:43;;;;;;;8.07;5.60;;;;;;;;;;5104952;28;20054;-43
2024/04/05 01:45:10;;;;;;;9.55;5.93;;;;;;;;;;5104784;28;20122;-47
2024/04/05 01:47:37;;;;;;;8.68;6.32;;;;;;;;;;5101764;28;20936;-40
2024/04/05 01:50:04;;;;;;;7.75;5.90;;;;;;;;;;5094344;28;20016;-37
2024/04/05 01:52:30;;;;;;;9.68;6.40;;;;;;;;;;5105182;28;20024;-37
2024/04/05 01:54:57;;;;;;;6.90;5.57;;;;;;;;;;5098937;28;20336;-42
2024/04/05 01:57:24;;;;;;;6.80;5.53;;;;;;;;;;5093157;28;20200;-40
2024/04/05 01:59:51;;;;;;;6.70;5.35;;;;;;;;;;5084449;28;20051;-43
2024/04/05 02:02:18;;;;;;;5.93;5.38;;;;;;;;;;5084753;28;20036;-47
2024/04/05 02:04:45;;;;;;;7.57;5.18;;;;;;;;;;5084065;28;20265;-45
2024/04/05 02:07:11;;;;;;;9.80;5.78;;;;;;;;;;5084759;28;20039;-37
2024/04/05 02:09:38;;;;;;;8.00;5.55;;;;;;;;;;5083932;28;20024;-41
2024/04/05 02:12:04;;;;;;;6.85;5.63;;;;;;;;;;5083938;28;20024;-37
2024/04/05 02:14:34;;;;;;;6.13;5.47;;;;;;;;;;5090064;28;20020;-45
2024/04/05 02:17:00;;;;;;;8.80;6.32;;;;;;;;;;5098310;28;20028;-39
2024/04/05 02:19:27;;;;;;;7.68;5.82;;;;;;;;;;5087995;28;20102;-43
2024/04/05 02:21:54;;;;;;;8.05;6.30;;;;;;;;;;5093144;28;20289;-45
2024/04/05 02:24:21;;;;;;;8.07;5.78;;;;;;;;;;5084187;28;20032;-44
2024/04/05 02:26:48;;;;;;;6.72;6.03;;;;;;;;;;5084129;28;20020;-43
2024/04/05 02:29:14;;;;;;;8.75;5.72;;;;;;;;;;5083883;28;20043;-42
2024/04/05 02:31:41;;;;;;;8.05;5.90;;;;;;;;;;5084493;28;20178;-44
2024/04/05 02:34:07;;;;;;;7.65;5.90;;;;;;;;;;5083827;28;20030;-43
2024/04/05 02:36:34;;;;;;;6.05;5.30;;;;;;;;;;5084167;28;20027;-44
2024/04/05 02:39:01;;;;;;;10.90;5.00;;;;;;;;;;5084073;28;20020;-41
2024/04/05 02:41:27;;;;;;;11.00;5.47;;;;;;;;;;5088959;28;20087;-43
2024/04/05 02:43:54;;;;;;;12.02;5.78;;;;;;;;;;5094506;28;20016;-42
2024/04/05 02:46:20;;;;;;;6.30;5.18;;;;;;;;;;5092918;28;20083;-42
2024/04/05 02:48:47;;;;;;;7.22;5.20;;;;;;;;;;5093185;28;20027;-43
2024/04/05 02:51:13;;;;;;;7.25;5.28;;;;;;;;;;5093492;28;20028;-45
2024/04/05 02:53:40;;;;;;;9.93;5.15;;;;;;;;;;5099588;28;20016;-41
2024/04/05 02:56:07;;;;;;;6.18;4.32;;;;;;;;;;5093586;28;20039;-47
2024/04/05 02:58:34;;;;;;;5.38;4.15;;;;;;;;;;5092270;28;20024;-43
2024/04/05 03:01:01;;;;;;;8.30;4.57;;;;;;;;;;5094201;28;20042;-42
2024/04/05 03:03:27;;;;;;;10.25;4.43;;;;;;;;;;5093453;28;20083;-43
2024/04/05 03:05:54;;;;;;;7.88;4.40;;;;;;;;;;5092218;28;20036;-43
2024/04/05 03:08:20;;;;;;;6.32;3.95;;;;;;;;;;5094014;28;20019;-48
2024/04/05 03:10:47;;;;;;;6.32;3.78;;;;;;;;;;5095327;28;20044;-37
2024/04/05 03:13:14;;;;;;;8.50;4.20;;;;;;;;;;5095050;28;20028;-43
2024/04/05 03:15:40;;;;;;;8.38;3.85;;;;;;;;;;5092492;28;20043;-36
2024/04/05 03:18:07;;;;;;;9.18;4.78;;;;;;;;;;5093022;28;20020;-44
2024/04/05 03:20:33;;;;;;;7.45;5.35;;;;;;;;;;5093915;28;20032;-40
2024/04/05 03:23:00;;;;;;;5.18;4.68;;;;;;;;;;5095316;28;20036;-44
2024/04/05 03:25:27;;;;;;;7.00;5.00;;;;;;;;;;5096662;28;20020;-40
2024/04/05 03:27:53;;;;;;;8.52;4.68;;;;;;;;;;5097911;28;20031;-47
2024/04/05 03:30:20;;;;;;;5.15;4.10;;;;;;;;;;5095924;28;20042;-41
2024/04/05 03:32:46;;;;;;;6.57;4.78;;;;;;;;;;5096795;28;20091;-37
2024/04/05 03:35:14;;;;;;;7.55;4.90;;;;;;;;;;5097640;28;20024;-42
2024/04/05 03:37:41;;;;;;;7.85;5.05;;;;;;;;;;5100922;28;20036;-37
2024/04/05 03:40:08;;;;;;;8.50;4.80;;;;;;;;;;5098795;28;20231;-45
2024/04/05 03:42:35;;;;;;;5.95;4.50;;;;;;;;;;5099424;28;20212;-45
2024/04/05 03:45:01;;;;;;;9.10;4.70;;;;;;;;;;5098150;28;20020;-44
2024/04/05 03:47:28;;;;;;;6.85;4.88;;;;;;;;;;5097412;28;20034;-42
2024/04/05 03:49:55;;;;;;;5.60;4.50;;;;;;;;;;5097512;28;20038;-53
2024/04/05 03:52:21;;;;;;;9.55;4.70;;;;;;;;;;5095960;28;20021;-47
2024/04/05 03:54:48;;;;;;;6.18;4.63;;;;;;;;;;5096860;28;20084;-37
2024/04/05 03:57:14;;;;;;;5.43;4.93;;;;;;;;;;5097525;28;20066;-37
2024/04/05 03:59:41;;;;;;;6.57;4.90;;;;;;;;;;5095327;28;20024;-37
2024/04/05 04:02:08;;;;;;;5.82;4.85;;;;;;;;;;5097189;28;20020;-38
2024/04/05 04:04:35;;;;;;;5.82;4.93;;;;;;;;;;5096830;28;20025;-38
2024/04/05 04:07:02;;;;;;;6.72;5.00;;;;;;;;;;5095669;28;20013;-40
2024/04/05 04:09:28;;;;;;;5.75;4.97;;;;;;;;;;5096500;28;20079;-38
2024/04/05 04:11:55;;;;;;;6.78;4.85;;;;;;;;;;5099580;28;20020;-42
2024/04/05 04:14:21;;;;;;;7.85;4.72;;;;;;;;;;5097659;28;20016;-40
2024/04/05 04:16:48;;;;;;;10.38;5.05;;;;;;;;;;5096807;28;20027;-36
2024/04/05 04:19:14;;;;;;;7.60;5.05;;;;;;;;;;5099549;28;20331;-48
2024/04/05 04:21:41;;;;;;;6.45;4.57;;;;;;;;;;5106926;28;20359;-42
2024/04/05 04:24:09;;;;;;;5.80;4.68;;;;;;;;;;5106530;28;20329;-43
2024/04/05 04:26:36;;;;;;;7.38;4.75;;;;;;;;;;5106612;28;20037;-40
2024/04/05 04:29:05;;;;;;;9.20;4.82;;;;;;;;;;5106476;28;20087;-42
2024/04/05 04:31:32;;;;;;;7.13;4.65;;;;;;;;;;5106640;28;20044;-42
2024/04/05 04:33:58;;;;;;;7.30;5.13;;;;;;;;;;5105350;28;20216;-45
2024/04/05 04:36:25;;;;;;;5.53;4.70;;;;;;;;;;5106574;28;20023;-42
2024/04/05 04:38:52;;;;;;;7.72;4.95;;;;;;;;;;5106538;28;20030;-36
2024/04/05 04:41:21;;;;;;;5.97;4.88;;;;;;;;;;5101918;28;20024;-40
2024/04/05 04:43:47;;;;;;;5.63;4.72;;;;;;;;;;5094964;28;20048;-36
2024/04/05 04:46:14;;;;;;;5.72;4.70;;;;;;;;;;5085957;28;20240;-36
2024/04/05 04:48:41;;;;;;;7.38;4.90;;;;;;;;;;5089752;28;20031;-42
2024/04/05 04:51:09;;;;;;;8.38;4.57;;;;;;;;;;5096944;28;20200;-37
2024/04/05 04:53:36;;;;;;;6.78;4.88;;;;;;;;;;5085693;28;20212;-47
2024/04/05 04:56:02;;;;;;;6.55;4.40;;;;;;;;;;5085742;28;20024;-42
2024/04/05 04:58:29;;;;;;;7.15;4.63;;;;;;;;;;5085639;28;20032;-39
2024/04/05 05:00:56;;;;;;;7.50;4.10;;;;;;;;;;5085648;28;20323;-41
2024/04/05 05:03:22;;;;;;;6.78;4.32;;;;;;;;;;5085431;28;20082;-40
2024/04/05 05:05:49;;;;;;;6.38;4.55;;;;;;;;;;5085426;28;20024;-41
2024/04/05 05:08:16;;;;;;;4.85;4.45;;;;;;;;;;5085519;28;20199;-38
2024/04/05 05:10:43;;;;;;;7.20;4.45;;;;;;;;;;5085490;28;20013;-42
2024/04/05 05:13:10;;;;;;;9.82;4.35;;;;;;;;;;5085334;28;20035;-43
2024/04/05 05:15:36;;;;;;;5.60;4.40;;;;;;;;;;5090566;28;20035;-36
2024/04/05 05:18:04;;;;;;;6.10;4.53;;;;;;;;;;5090929;28;20020;-40
2024/04/05 05:20:31;;;;;;;6.43;4.28;;;;;;;;;;5098464;28;20242;-39
2024/04/05 05:22:58;;;;;;;6.63;4.45;;;;;;;;;;5103336;28;20213;-38
2024/04/05 05:25:25;;;;;;;5.80;4.40;;;;;;;;;;5093833;28;20298;-44
2024/04/05 05:27:52;;;;;;;8.32;4.38;;;;;;;;;;5085174;28;20020;-39
2024/04/05 05:30:18;;;;;;;5.30;4.20;;;;;;;;;;5084874;28;20056;-35
2024/04/05 05:32:45;;;;;;;5.85;4.00;;;;;;;;;;5085224;28;20024;-36
2024/04/05 05:35:12;;;;;;;5.90;4.03;;;;;;;;;;5084628;28;20016;-37
2024/04/05 05:37:38;;;;;;;7.18;3.97;;;;;;;;;;5084956;28;20032;-44
2024/04/05 05:40:05;;;;;;;7.07;4.05;;;;;;;;;;5084747;28;20125;-43
2024/04/05 05:42:32;;;;;;;5.05;3.85;;;;;;;;;;5085075;28;20095;-35
2024/04/05 05:44:59;;;;;;;4.68;3.70;;;;;;;;;;5084679;28;20029;-38
2024/04/05 05:47:25;;;;;;;5.78;3.78;;;;;;;;;;5085208;28;20012;-46
2024/04/05 05:49:52;;;;;;;5.57;3.75;;;;;;;;;;5084578;28;20031;-49
2024/04/05 05:52:19;;;;;;;4.28;3.85;;;;;;;;;;5085049;28;20013;-46
2024/04/05 05:54:46;;;;;;;4.18;3.63;;;;;;;;;;5084650;28;20039;-45
2024/04/05 05:57:12;;;;;;;5.40;4.07;;;;;;;;;;5084422;28;20044;-44
2024/04/05 05:59:39;;;;;;;5.97;3.78;;;;;;;;;;5096561;28;20204;-39
2024/04/05 06:02:06;;;;;;;5.30;3.65;;;;;;;;;;5090445;28;20031;-39
2024/04/05 06:04:32;;;;;;;4.68;3.80;;;;;;;;;;5104503;28;20053;-42
2024/04/05 06:06:59;;;;;;;4.28;3.55;;;;;;;;;;5104985;28;20189;-45
2024/04/05 06:09:26;;;;;;;6.50;4.10;;;;;;;;;;5104469;28;20028;-40
2024/04/05 06:11:54;;;;;;;6.65;4.00;;;;;;;;;;5104691;28;20308;-41
2024/04/05 06:14:20;;;;;;;7.15;3.50;;;;;;;;;;5104380;28;20036;-49
2024/04/05 06:16:48;;;;;;;8.18;3.80;;;;;;;;;;5104815;28;20208;-37
2024/04/05 06:19:15;;;;;;;7.75;3.70;;;;;;;;;;5104335;28;20378;-42
2024/04/05 06:21:41;;;;;;;12.55;4.18;;;;;;;;;;5104671;28;20016;-41
2024/04/05 06:24:08;;;;;;;7.63;4.20;;;;;;;;;;5104441;28;20328;-43
2024/04/05 06:26:35;;;;;;;7.30;4.10;;;;;;;;;;5104317;28;20296;-42
2024/04/05 06:29:04;;;;;;;4.65;4.20;;;;;;;;;;5104349;28;20028;-45
2024/04/05 06:31:31;;;;;;;6.00;4.00;;;;;;;;;;5104409;28;20055;-40
2024/04/05 06:33:57;;;;;;;9.07;4.43;;;;;;;;;;5103999;28;20034;-39
2024/04/05 06:36:24;;;;;;;5.40;3.92;;;;;;;;;;5104479;28;20031;-48
2024/04/05 06:38:50;;;;;;;7.00;4.30;;;;;;;;;;5104253;28;20046;-42
2024/04/05 06:41:18;;;;;;;4.30;3.65;;;;;;;;;;5104063;28;20027;-50
2024/04/05 06:43:44;;;;;;;5.53;3.97;;;;;;;;;;5104336;28;20039;-44
2024/04/05 06:46:11;;;;;;;8.20;4.03;;;;;;;;;;5104210;28;20046;-42
2024/04/05 06:48:38;;;;;;;6.05;4.15;;;;;;;;;;5103904;28;20020;-41
2024/04/05 06:51:16;;;;;;;9.65;4.35;;;;;;;;;;5104077;28;20024;-44
2024/04/05 06:53:43;;;;;;;5.75;4.18;;;;;;;;;;5103849;28;20016;-42
2024/04/05 06:56:10;;;;;;;4.95;3.88;;;;;;;;;;5103970;28;20040;-42
2024/04/05 06:58:37;;;;;;;7.57;3.83;;;;;;;;;;5108273;28;20019;-42
2024/04/05 07:01:05;;;;;;;6.47;4.18;;;;;;;;;;5108186;28;20267;-49
2024/04/05 07:03:32;;;;;;;8.13;4.03;;;;;;;;;;5107913;28;20028;-41
2024/04/05 07:06:03;;;;;;;11.40;3.90;;;;;;;;;;5108223;28;20028;-45
2024/04/05 07:08:31;;;;;;;6.95;3.80;;;;;;;;;;5108012;28;20026;-48
2024/04/05 07:10:58;;;;;;;6.15;3.50;;;;;;;;;;5107973;28;20023;-45
2024/04/05 07:13:25;;;;;;;5.68;3.55;;;;;;;;;;5107864;28;20146;-46
2024/04/05 07:15:52;;;;;;;6.18;3.75;;;;;;;;;;5107924;28;20030;-45
2024/04/05 07:18:22;;;;;;;5.60;3.90;;;;;;;;;;5107729;28;20059;-36
2024/04/05 07:20:48;;;;;;;7.15;3.53;;;;;;;;;;5108010;28;20035;-43
2024/04/05 07:23:15;;;;;;;6.72;4.40;;;;;;;;;;5107829;28;20080;-43
2024/04/05 07:25:41;;;;;;;6.28;4.03;;;;;;;;;;5107449;28;20016;-44
2024/04/05 07:28:08;;;;;;;6.20;4.18;;;;;;;;;;5107744;28;20031;-38
2024/04/05 07:30:37;;;;;;;8.80;3.92;;;;;;;;;;5107515;28;20040;-51
2024/04/05 07:33:04;;;;;;;6.13;4.32;;;;;;;;;;5107391;28;20280;-44
2024/04/05 07:35:32;;;;;;;7.57;4.63;;;;;;;;;;5107551;28;20040;-43
2024/04/05 07:37:58;;;;;;;6.07;4.63;;;;;;;;;;5107402;28;20020;-45
2024/04/05 07:40:26;;;;;;;5.63;4.28;;;;;;;;;;5107190;28;20030;-46
2024/04/05 07:42:55;;;;;;;5.93;4.68;;;;;;;;;;5107343;28;20047;-42
2024/04/05 07:45:23;;;;;;;8.15;4.68;;;;;;;;;;5107317;28;20028;-41
2024/04/05 07:47:50;;;;;;;7.72;5.03;;;;;;;;;;5107071;28;20083;-40
2024/04/05 07:50:17;;;;;;;7.93;5.07;;;;;;;;;;5107115;28;20040;-43
2024/04/05 07:52:43;;;;;;;9.85;5.38;;;;;;;;;;5107303;28;20228;-49
2024/04/05 07:55:10;;;;;;;7.15;5.13;;;;;;;;;;5107069;28;20024;-44
2024/04/05 07:57:40;;;;;;;5.90;5.28;;;;;;;;;;5107041;28;20296;-41
2024/04/05 08:00:13;;;;;;;6.55;5.18;;;;;;;;;;5107108;28;20024;-46
2024/04/05 08:02:49;;;;;;;7.57;5.60;;;;;;;;;;5106938;28;20074;-41
2024/04/05 08:05:16;;;;;;;6.35;5.57;;;;;;;;;;5106959;28;20020;-42
2024/04/05 08:07:43;;;;;;;9.15;5.57;;;;;;;;;;5106150;28;20243;-41
2024/04/05 08:10:10;;;;;;;7.13;5.65;;;;;;;;;;5106347;28;20016;-42
2024/04/05 08:12:40;;;;;;;7.53;5.70;;;;;;;;;;5106654;28;20035;-42
2024/04/05 08:15:10;;;;;;;7.85;6.10;;;;;;;;;;5106593;28;20024;-42
2024/04/05 08:17:36;;;;;;;8.32;6.72;;;;;;;;;;5106589;28;20024;-43
2024/04/05 08:20:03;;;;;;;7.50;6.07;;;;;;;;;;5106644;28;20024;-44
2024/04/05 08:22:30;;;;;;;6.95;6.35;;;;;;;;;;5106854;28;20361;-47
2024/04/05 08:25:00;;;;;;;8.50;6.45;;;;;;;;;;5106597;28;20028;-40
2024/04/05 08:27:31;;;;;;;8.60;5.93;;;;;;;;;;5107046;28;20016;-44
2024/04/05 08:29:58;;;;;;;7.30;6.60;;;;;;;;;;5106169;28;20051;-45
2024/04/05 08:32:25;;;;;;;7.47;6.57;;;;;;;;;;5106934;28;20573;-45
2024/04/05 08:34:51;;;;;;;7.55;6.15;;;;;;;;;;5106525;28;20031;-46
2024/04/05 08:37:18;;;;;;;7.78;6.57;;;;;;;;;;5106690;28;20024;-43
2024/04/05 08:39:44;;;;;;;9.65;6.53;;;;;;;;;;5106412;28;20016;-35
2024/04/05 08:42:12;;;;;;;7.60;6.30;;;;;;;;;;5106597;28;20035;-39
2024/04/05 08:44:39;;;;;;;7.63;6.50;;;;;;;;;;5106075;28;20376;-39
2024/04/05 08:47:10;;;;;;;10.48;6.20;;;;;;;;;;5106660;28;20034;-40
2024/04/05 08:49:37;;;;;;;7.75;6.88;;;;;;;;;;5106161;28;20016;-39
2024/04/05 08:52:04;;;;;;;7.70;6.53;;;;;;;;;;5106511;28;20024;-36
2024/04/05 08:54:31;;;;;;;7.88;6.68;;;;;;;;;;5105956;28;20047;-38
2024/04/05 08:56:59;;;;;;;7.68;6.65;;;;;;;;;;5106242;28;20044;-38
2024/04/05 08:59:29;;;;;;;7.78;6.82;;;;;;;;;;5105667;28;20020;-39
2024/04/05 09:01:59;;;;;;;9.20;7.15;;;;;;;;;;5106108;28;20020;-44
2024/04/05 09:04:26;;;;;;;7.93;6.93;;;;;;;;;;5105661;28;20031;-38
2024/04/05 09:06:53;;;;;;;10.30;6.82;;;;;;;;;;5106248;28;20042;-39
2024/04/05 09:09:29;;;;;;;10.30;7.28;;;;;;;;;;5105769;28;20020;-38
2024/04/05 09:12:02;;;;;;;9.73;7.10;;;;;;;;;;5105494;28;20075;-37
2024/04/05 09:14:36;;;;;;;9.00;7.28;;;;;;;;;;5105922;28;20346;-40
2024/04/05 09:17:03;;;;;;;10.07;7.20;;;;;;;;;;5105825;28;20075;-38
2024/04/05 09:19:31;;;;;;;10.50;7.10;;;;;;;;;;5104976;28;20035;-42
2024/04/05 09:21:57;;;;;;;9.80;6.57;;;;;;;;;;5105736;28;20016;-40
2024/04/05 09:24:24;;;;;;;8.27;7.10;;;;;;;;;;5105347;28;20024;-37
2024/04/05 09:27:03;;;;;;;7.82;7.03;;;;;;;;;;5105680;28;20053;-41
2024/04/05 09:29:29;;;;;;;8.98;7.00;;;;;;;;;;5105366;28;20028;-40
2024/04/05 09:31:56;;;;;;;8.07;7.25;;;;;;;;;;5105479;28;20024;-40
2024/04/05 09:34:26;;;;;;;9.10;6.93;;;;;;;;;;5105087;28;20050;-42
2024/04/05 09:36:53;;;;;;;8.48;7.07;;;;;;;;;;5105633;28;20023;-39
2024/04/05 09:39:21;;;;;;;9.00;7.05;;;;;;;;;;5104914;28;20080;-40
2024/04/05 09:41:55;;;;;;;7.75;6.93;;;;;;;;;;5105301;28;20020;-40
2024/04/05 09:44:23;;;;;;;8.07;6.85;;;;;;;;;;5104985;28;20344;-38
2024/04/05 09:46:49;;;;;;;9.38;7.05;;;;;;;;;;5105156;28;20097;-38
2024/04/05 09:49:16;;;;;;;9.55;7.00;;;;;;;;;;5104878;28;20019;-37
2024/04/05 09:51:46;;;;;;;8.02;6.72;;;;;;;;;;5105280;28;20086;-40
2024/04/05 09:54:13;;;;;;;10.95;7.72;;;;;;;;;;5104852;28;20055;-40
2024/04/05 09:56:41;;;;;;;7.25;6.55;;;;;;;;;;5105064;28;20024;-37
2024/04/05 09:59:13;;;;;;;9.00;7.20;;;;;;;;;;5104672;28;20054;-42
2024/04/05 10:01:41;;;;;;;9.88;7.38;;;;;;;;;;5105145;28;20234;-42
2024/04/05 10:04:08;;;;;;;7.28;6.57;;;;;;;;;;5104699;28;20065;-39
2024/04/05 10:06:38;;;;;;;9.50;6.72;;;;;;;;;;5104688;28;20043;-42
2024/04/05 10:09:18;;;;;;;7.38;6.65;;;;;;;;;;5104710;28;20237;-36
2024/04/05 10:11:45;;;;;;;7.60;6.88;;;;;;;;;;5104833;28;20024;-35
2024/04/05 10:14:28;;;;;;;8.40;7.18;;;;;;;;;;5104411;28;20039;-40
2024/04/05 10:17:06;;;;;;;8.10;6.70;;;;;;;;;;5104787;28;20035;-36
2024/04/05 10:19:32;;;;;;;8.40;6.50;;;;;;;;;;5104310;28;20028;-42
2024/04/05 10:22:19;;;;;;;7.57;6.78;;;;;;;;;;5104580;28;20016;-39
2024/04/05 10:24:45;;;;;;;10.50;7.25;;;;;;;;;;5104266;28;20408;-42
2024/04/05 10:27:22;;;;;;;7.72;6.90;;;;;;;;;;5104832;28;20012;-45
2024/04/05 10:30:18;;;;;;;7.82;6.60;;;;;;;;;;5104051;28;20274;-41
2024/04/05 10:32:44;;;;;;;10.45;6.97;;;;;;;;;;5086650;28;20036;-40
2024/04/05 10:35:11;;;;;;;8.40;7.40;;;;;;;;;;5104016;28;20083;-43
2024/04/05 10:37:38;;;;;;;8.73;6.65;;;;;;;;;;5104148;28;20046;-44
2024/04/05 10:40:10;;;;;;;9.55;6.68;;;;;;;;;;5104235;28;20212;-44
2024/04/05 10:42:37;;;;;;;8.15;6.63;;;;;;;;;;5104039;28;20028;-45
2024/04/05 10:45:05;;;;;;;7.30;6.60;;;;;;;;;;5104232;28;20035;-35
2024/04/05 10:47:35;;;;;;;12.18;7.07;;;;;;;;;;5104500;28;20035;-41
2024/04/05 10:50:06;;;;;;;8.98;6.90;;;;;;;;;;5104002;28;20032;-37
2024/04/05 10:52:36;;;;;;;8.65;6.70;;;;;;;;;;5104456;28;20020;-38
2024/04/05 10:55:10;;;;;;;8.60;6.78;;;;;;;;;;5103801;28;20024;-42
2024/04/05 10:57:37;;;;;;;8.57;6.85;;;;;;;;;;5103908;28;20031;-43
2024/04/05 11:00:04;;;;;;;9.65;6.88;;;;;;;;;;5103940;28;20031;-48
2024/04/05 11:02:31;;;;;;;8.05;7.25;;;;;;;;;;5104223;28;20020;-49
2024/04/05 11:05:10;;;;;;;9.48;7.13;;;;;;;;;;5103909;28;20073;-39
2024/04/05 11:07:37;;;;;;;9.85;6.50;;;;;;;;;;5103660;28;20197;-49
2024/04/05 11:10:23;;;;;;;8.93;6.60;;;;;;;;;;5104132;28;20212;-43
2024/04/05 11:12:50;;;;;;;8.38;7.07;;;;;;;;;;5103869;28;20024;-36
2024/04/05 11:15:21;;;;;;;11.57;7.30;;;;;;;;;;5103729;28;20082;-37
2024/04/05 11:18:08;;;;;;;11.13;6.60;;;;;;;;;;5103789;28;20082;-39
2024/04/05 11:20:39;;;;;;;8.82;6.75;;;;;;;;;;5103623;28;20024;-38
2024/04/05 11:23:06;;;;;;;7.85;7.05;;;;;;;;;;5103729;28;20032;-40
2024/04/05 11:25:34;;;;;;;14.25;12.85;;;;;;;;;;5103489;28;20031;-35
2024/04/05 11:28:23;;;;;;;640.05;583.50;;;;;;;;;;5103631;28;20189;-35
2024/04/05 11:30:50;;;;;;;506.40;463.00;;;;;;;;;;5088658;28;20048;-39
2024/04/05 11:33:16;;;;;;;530.60;484.20;;;;;;;;;;5103197;28;20024;-38
2024/04/05 11:35:43;;;;;;;477.10;436.10;;;;;;;;;;5103805;28;20245;-33
2024/04/05 11:38:11;;;;;;;417.45;381.92;;;;;;;;;;5103526;28;20062;-37
2024/04/05 11:40:38;;;;;;;373.98;341.73;;;;;;;;;;5103679;28;20211;-40
2024/04/05 11:43:08;;;;;;;332.58;304.48;;;;;;;;;;5104936;28;20024;-40
2024/04/05 11:45:36;;;;;;;309.88;283.33;;;;;;;;;;5106985;28;20330;-41
2024/04/05 11:48:03;;;;;;;291.25;266.35;;;;;;;;;;5107207;28;20024;-35
2024/04/05 11:50:33;;;;;;;237.70;217.05;;;;;;;;;;5107205;28;20083;-39
2024/04/05 11:53:00;;;;;;;194.02;177.02;;;;;;;;;;5107032;28;20016;-43
2024/04/05 11:55:27;;;;;;;202.30;184.35;;;;;;;;;;5107168;28;20016;-37
2024/04/05 11:57:54;;;;;;;155.80;141.52;;;;;;;;;;5107066;28;20031;-46
2024/04/05 12:00:20;;;;;;;147.70;134.35;;;;;;;;;;5106788;28;20030;-46
2024/04/05 12:02:47;;;;;;;131.02;119.20;;;;;;;;;;5107089;28;20268;-43
2024/04/05 12:05:14;;;;;;;123.53;111.85;;;;;;;;;;5106900;28;20316;-49
2024/04/05 12:07:40;;;;;;;107.38;97.75;;;;;;;;;;5106843;28;20020;-39
2024/04/05 12:10:07;;;;;;;66.03;60.08;;;;;;;;;;5106942;28;20020;-37
2024/04/05 12:12:34;;;;;;;88.68;80.60;;;;;;;;;;5107307;28;20020;-37
2024/04/05 12:15:01;;;;;;;88.35;80.22;;;;;;;;;;5106597;28;20048;-43
2024/04/05 12:17:27;;;;;;;73.80;67.10;;;;;;;;;;5107299;28;20077;-49
2024/04/05 12:19:54;;;;;;;64.15;58.35;;;;;;;;;;5106614;28;20043;-48
2024/04/05 12:22:21;;;;;;;49.03;44.50;;;;;;;;;;5106987;28;20369;-42
2024/04/05 12:24:48;;;;;;;56.03;50.78;;;;;;;;;;5106452;28;20058;-46
2024/04/05 12:27:15;;;;;;;46.30;41.85;;;;;;;;;;5106939;28;20020;-46
2024/04/05 12:29:42;;;;;;;35.13;31.80;;;;;;;;;;5106306;28;20347;-48
2024/04/05 12:32:08;;;;;;;30.00;27.33;;;;;;;;;;5106849;28;20020;-46
2024/04/05 12:34:35;;;;;;;26.98;24.38;;;;;;;;;;5106491;28;20316;-48
2024/04/05 12:37:08;;;;;;;23.95;21.33;;;;;;;;;;5106665;28;20024;-44
2024/04/05 12:39:38;;;;;;;18.13;16.42;;;;;;;;;;5106259;28;20320;-43
2024/04/05 12:42:05;;;;;;;16.85;14.77;;;;;;;;;;5106636;28;20031;-46
2024/04/05 12:44:33;;;;;;;16.35;12.75;;;;;;;;;;5106088;28;20308;-41
2024/04/05 12:46:59;;;;;;;12.25;10.38;;;;;;;;;;5106474;28;20051;-41
2024/04/05 12:49:26;;;;;;;11.30;10.20;;;;;;;;;;5106170;28;20022;-39
2024/04/05 12:51:55;;;;;;;10.63;9.52;;;;;;;;;;5106217;28;20058;-46
2024/04/05 12:54:21;;;;;;;12.82;8.82;;;;;;;;;;5105211;28;20043;-41
2024/04/05 12:56:48;;;;;;;11.20;8.68;;;;;;;;;;5106375;28;20062;-42
2024/04/05 12:59:15;;;;;;;10.10;8.80;;;;;;;;;;5105652;28;20016;-43
2024/04/05 13:01:41;;;;;;;9.52;7.50;;;;;;;;;;5106275;28;20024;-40
2024/04/05 13:04:08;;;;;;;7.93;7.13;;;;;;;;;;5105870;28;20088;-45
2024/04/05 13:06:36;;;;;;;8.10;7.28;;;;;;;;;;5105854;28;20024;-44
2024/04/05 13:09:03;;;;;;;8.77;7.30;;;;;;;;;;5105672;28;20028;-43
2024/04/05 13:11:30;;;;;;;9.57;7.32;;;;;;;;;;5105476;28;20339;-45
2024/04/05 13:13:56;;;;;;;8.45;7.55;;;;;;;;;;5105578;28;20024;-40
2024/04/05 13:16:23;;;;;;;8.23;7.38;;;;;;;;;;5105954;28;20027;-46
2024/04/05 13:18:52;;;;;;;8.00;6.93;;;;;;;;;;5105508;28;20050;-39
2024/04/05 13:21:18;;;;;;;8.25;7.00;;;;;;;;;;5105414;28;20065;-45
2024/04/05 13:23:45;;;;;;;10.18;6.60;;;;;;;;;;5105611;28;20027;-37
2024/04/05 13:26:21;;;;;;;7.00;6.30;;;;;;;;;;5105688;28;20024;-43
2024/04/05 13:28:59;;;;;;;8.00;6.30;;;;;;;;;;5105156;28;20332;-44
2024/04/05 13:31:30;;;;;;;8.80;7.13;;;;;;;;;;5105508;28;20056;-36
2024/04/05 13:33:57;;;;;;;7.00;6.30;;;;;;;;;;5105112;28;20034;-42
2024/04/05 13:36:24;;;;;;;7.53;6.78;;;;;;;;;;5105364;28;20258;-42
2024/04/05 13:38:51;;;;;;;8.02;6.68;;;;;;;;;;5105436;28;20198;-49
2024/04/05 13:41:18;;;;;;;9.23;7.10;;;;;;;;;;5105396;28;20098;-37
2024/04/05 13:43:45;;;;;;;10.43;6.78;;;;;;;;;;5105215;28;20024;-39
2024/04/05 13:46:17;;;;;;;8.25;6.88;;;;;;;;;;5105205;28;20024;-43
2024/04/05 13:48:45;;;;;;;7.65;6.57;;;;;;;;;;5104783;28;20189;-40
2024/04/05 13:51:12;;;;;;;7.32;6.43;;;;;;;;;;5099108;28;20016;-42
2024/04/05 13:53:39;;;;;;;7.78;6.60;;;;;;;;;;5087227;28;20020;-39
2024/04/05 13:56:06;;;;;;;9.30;7.00;;;;;;;;;;5100395;28;20338;-36
2024/04/05 13:58:33;;;;;;;7.68;6.30;;;;;;;;;;5104768;28;20088;-49
2024/04/05 14:01:08;;;;;;;8.43;6.55;;;;;;;;;;5101899;28;20095;-39
2024/04/05 14:03:35;;;;;;;6.80;5.78;;;;;;;;;;5085709;28;20189;-36
2024/04/05 14:06:03;;;;;;;6.93;6.22;;;;;;;;;;5095873;28;20395;-38
2024/04/05 14:08:30;;;;;;;10.75;6.53;;;;;;;;;;5098855;28;20035;-40
2024/04/05 14:10:57;;;;;;;12.25;6.22;;;;;;;;;;5098114;28;20040;-44
2024/04/05 14:13:25;;;;;;;11.88;6.60;;;;;;;;;;5098351;28;20055;-42
2024/04/05 14:15:58;;;;;;;8.45;6.20;;;;;;;;;;5086692;28;20078;-45
2024/04/05 14:18:26;;;;;;;12.98;6.50;;;;;;;;;;5100604;28;20036;-42
2024/04/05 14:20:54;;;;;;;8.13;6.20;;;;;;;;;;5094640;28;20028;-37
2024/04/05 14:23:21;;;;;;;9.52;6.32;;;;;;;;;;5084294;28;20351;-42
2024/04/05 14:25:53;;;;;;;8.68;5.95;;;;;;;;;;5084234;28;20028;-38
2024/04/05 14:28:19;;;;;;;7.00;5.85;;;;;;;;;;5084037;28;20084;-36
2024/04/05 14:30:54;;;;;;;10.07;5.78;;;;;;;;;;5083872;28;20051;-37
2024/04/05 14:33:20;;;;;;;7.63;5.90;;;;;;;;;;5083991;28;20130;-44
2024/04/05 14:35:47;;;;;;;10.43;5.88;;;;;;;;;;5086245;28;20031;-50
2024/04/05 14:38:13;;;;;;;6.85;5.57;;;;;;;;;;5092745;28;20074;-52
2024/04/05 14:40:40;;;;;;;7.22;5.80;;;;;;;;;;5083969;28;20024;-42
2024/04/05 14:43:06;;;;;;;7.53;5.95;;;;;;;;;;5084001;28;20024;-38